Burton, Texas
Current Conditions -  °F | °C
As of 10:55 PM on Saturday 22 Nov 2014 (Local Time) from K11R Reporting Station
Thunderstorm Thunderstorm  
Wind Chill: 17°   Ceiling: 600
Heat Index: 17°   Visibility: 2.5mi
Dew Point: 16°   Wind: 12mph
Humidity: 91%   Direction: 290°WNW
Pressure: 29.82"   Gusts: 20mph
Location:  30.18°N, 96.6°W
Report Text: K11R 230455Z AUTO 29010G17KT 2 1/2SM +VCTSRA BKN006 OVC011 17/16 A2982 RMK AO2 VIS 1 1/4V5 LTG DSNT ALQS P0047 T01700156
Loading
Personal Weather Stations






























Interactive Weather Map New forecast layout! Learn more

10-Day Weather Forecast

Advertisements
Track Severe Weather on mobile